Time;durP1;ratioP1;P1;durP2;ratioP2;P2;SDS_P1;SDS_P2;PMS_P1;PMS_P2;Temp;Humidity;BMP_temperature;BMP_pressure;BME280_temperature;BME280_humidity;BME280_pressure;Samples;Min_cycle;Max_cycle;Signal;HPM_P1;HPM_P2
2023/05/14 00:01:12;;;;;;;9.80;6.80;;;11.70;99.90;;;;;;4974555;28;20057;-77
2023/05/14 00:03:39;;;;;;;9.68;6.95;;;11.70;99.90;;;;;;4974818;28;20050;-77
2023/05/14 00:06:06;;;;;;;9.80;6.78;;;11.70;99.90;;;;;;4975842;28;20022;-77
2023/05/14 00:08:38;;;;;;;11.20;7.55;;;11.70;99.90;;;;;;4977375;28;20022;-77
2023/05/14 00:11:03;;;;;;;10.57;7.68;;;11.70;99.90;;;;;;4988021;28;20181;-77
2023/05/14 00:13:29;;;;;;;8.75;6.75;;;11.70;99.90;;;;;;4976092;28;20058;-77
2023/05/14 00:15:55;;;;;;;12.18;7.65;;;11.70;99.90;;;;;;4976751;28;20035;-76
2023/05/14 00:18:20;;;;;;;10.52;7.97;;;11.70;99.90;;;;;;4986446;28;20027;-77
2023/05/14 00:20:46;;;;;;;12.38;7.47;;;11.70;99.90;;;;;;4975147;28;20035;-76
2023/05/14 00:23:11;;;;;;;10.73;8.05;;;11.60;99.90;;;;;;4974131;28;20067;-77
2023/05/14 00:25:37;;;;;;;8.85;6.88;;;11.60;99.90;;;;;;4975166;28;20049;-78
2023/05/14 00:28:03;;;;;;;9.68;7.38;;;11.60;99.90;;;;;;4976873;28;20101;-77
2023/05/14 00:30:29;;;;;;;8.52;6.88;;;11.60;99.90;;;;;;4977136;28;20038;-77
2023/05/14 00:32:54;;;;;;;10.85;7.30;;;11.60;99.90;;;;;;4977645;28;20378;-77
2023/05/14 00:35:23;;;;;;;10.10;6.88;;;11.60;99.90;;;;;;4974677;28;20151;-77
2023/05/14 00:37:49;;;;;;;12.38;7.60;;;11.60;99.90;;;;;;4974227;28;20053;-77
2023/05/14 00:40:18;;;;;;;8.00;6.65;;;11.60;99.90;;;;;;4974397;28;20019;-77
2023/05/14 00:42:44;;;;;;;10.45;6.97;;;11.60;99.90;;;;;;4971203;28;20076;-77
2023/05/14 00:45:13;;;;;;;11.38;6.28;;;11.60;99.90;;;;;;4971400;28;20027;-77
2023/05/14 00:47:39;;;;;;;10.75;7.13;;;11.60;99.90;;;;;;4994087;28;20030;-77
2023/05/14 00:50:05;;;;;;;9.45;6.90;;;11.60;99.90;;;;;;4978351;28;20101;-77
2023/05/14 00:52:31;;;;;;;9.50;7.18;;;11.60;99.90;;;;;;4971412;28;20062;-77
2023/05/14 00:55:02;;;;;;;10.10;7.38;;;11.50;99.90;;;;;;4975572;28;20034;-77
2023/05/14 00:57:28;;;;;;;8.50;6.90;;;11.50;99.90;;;;;;4977992;28;20083;-76
2023/05/14 00:59:59;;;;;;;10.95;7.45;;;11.50;99.90;;;;;;4976229;28;20105;-76
2023/05/14 01:02:25;;;;;;;9.20;6.82;;;11.50;99.90;;;;;;4986680;28;20363;-76
2023/05/14 01:04:51;;;;;;;11.30;6.63;;;11.50;99.90;;;;;;4969900;28;20049;-77
2023/05/14 01:07:45;;;;;;;10.60;6.85;;;11.50;99.90;;;;;;4975208;28;20023;-76
2023/05/14 01:10:13;;;;;;;10.93;7.60;;;11.50;99.90;;;;;;4970395;28;20397;-76
2023/05/14 01:13:27;;;;;;;11.63;6.97;;;11.50;99.90;;;;;;4980674;28;20117;-76
2023/05/14 01:15:57;;;;;;;8.85;6.97;;;11.60;99.90;;;;;;4928111;28;20054;-76
2023/05/14 01:18:24;;;;;;;12.82;7.45;;;11.50;99.90;;;;;;4966639;28;20090;-76
2023/05/14 01:20:53;;;;;;;9.68;6.90;;;11.50;99.90;;;;;;4975384;28;20554;-76
2023/05/14 01:23:19;;;;;;;10.13;6.90;;;11.60;99.90;;;;;;4972695;28;21258;-76
2023/05/14 01:25:44;;;;;;;9.88;7.45;;;11.60;99.90;;;;;;4969693;28;20034;-76
2023/05/14 01:28:18;;;;;;;12.77;7.63;;;11.60;99.90;;;;;;4971847;28;20081;-76
2023/05/14 01:30:55;;;;;;;10.27;7.00;;;11.60;99.90;;;;;;4967403;28;20164;-76
2023/05/14 01:33:26;;;;;;;10.20;7.72;;;11.60;99.90;;;;;;4974363;28;20034;-76
2023/05/14 01:35:55;;;;;;;9.88;7.97;;;11.50;99.90;;;;;;4970154;28;20031;-76
2023/05/14 01:38:21;;;;;;;11.82;7.88;;;11.50;99.90;;;;;;4970523;28;20034;-76
2023/05/14 01:40:49;;;;;;;10.30;7.63;;;11.50;99.90;;;;;;4973160;28;20038;-76
2023/05/14 01:43:15;;;;;;;10.45;7.53;;;11.50;99.90;;;;;;4970426;28;20421;-76
2023/05/14 01:45:42;;;;;;;9.90;8.02;;;11.50;99.90;;;;;;4973988;28;20054;-76
2023/05/14 01:48:11;;;;;;;13.27;8.45;;;11.40;99.90;;;;;;4978555;28;20026;-76
2023/05/14 01:50:39;;;;;;;10.75;7.43;;;11.50;99.90;;;;;;4979163;28;20081;-77
2023/05/14 01:53:05;;;;;;;12.63;8.57;;;11.40;99.90;;;;;;4977197;28;20090;-77
2023/05/14 01:55:33;;;;;;;11.60;8.13;;;11.40;99.90;;;;;;4976605;28;20026;-77
2023/05/14 01:57:59;;;;;;;14.25;7.32;;;11.40;99.90;;;;;;4980774;28;20035;-77
2023/05/14 02:00:30;;;;;;;11.25;8.30;;;11.40;99.90;;;;;;4982186;28;20385;-77
2023/05/14 02:02:56;;;;;;;13.57;8.35;;;11.40;99.90;;;;;;4990433;28;20424;-76
2023/05/14 02:05:24;;;;;;;10.30;7.53;;;11.40;99.90;;;;;;4976527;28;20209;-77
2023/05/14 02:07:50;;;;;;;13.27;8.93;;;11.40;99.90;;;;;;4978348;28;20035;-77
2023/05/14 02:10:24;;;;;;;12.55;9.07;;;11.30;99.90;;;;;;4978687;28;20057;-77
2023/05/14 02:12:56;;;;;;;11.95;8.65;;;11.40;99.90;;;;;;4980591;28;20069;-77
2023/05/14 02:15:25;;;;;;;11.48;8.73;;;11.40;99.90;;;;;;4974628;28;20189;-77
2023/05/14 02:17:50;;;;;;;12.88;8.60;;;11.40;99.90;;;;;;4976525;28;20045;-77
2023/05/14 02:20:22;;;;;;;13.68;9.07;;;11.40;99.90;;;;;;4978578;28;20031;-77
2023/05/14 02:22:47;;;;;;;10.35;7.75;;;11.40;99.90;;;;;;4988607;28;20450;-76
2023/05/14 02:25:13;;;;;;;10.05;7.60;;;11.40;99.90;;;;;;4972574;28;20015;-76
2023/05/14 02:27:39;;;;;;;12.60;9.32;;;11.40;99.90;;;;;;4979933;28;20023;-76
2023/05/14 02:30:05;;;;;;;15.05;10.65;;;11.40;99.90;;;;;;4973315;28;20027;-76
2023/05/14 02:32:30;;;;;;;14.88;9.07;;;11.40;99.90;;;;;;4975771;28;20387;-76
2023/05/14 02:35:02;;;;;;;12.25;8.30;;;11.40;99.90;;;;;;4971173;28;20033;-78
2023/05/14 02:37:28;;;;;;;11.57;8.25;;;11.40;99.90;;;;;;4974954;28;21258;-78
2023/05/14 02:39:56;;;;;;;11.63;8.32;;;11.40;99.90;;;;;;4976506;28;20022;-77
2023/05/14 02:42:22;;;;;;;13.35;8.68;;;11.40;99.90;;;;;;4971986;28;20031;-78
2023/05/14 02:44:48;;;;;;;11.20;7.80;;;11.40;99.90;;;;;;4978764;28;20089;-78
2023/05/14 02:47:19;;;;;;;11.38;8.23;;;11.40;99.90;;;;;;4987933;28;20078;-79
2023/05/14 02:49:48;;;;;;;11.50;8.43;;;11.40;99.90;;;;;;4987652;28;20038;-79
2023/05/14 02:52:13;;;;;;;12.57;8.43;;;11.40;99.90;;;;;;4979074;28;20110;-78
2023/05/14 02:54:48;;;;;;;10.82;8.55;;;11.40;99.90;;;;;;4975371;28;20069;-78
2023/05/14 02:57:14;;;;;;;10.73;8.20;;;11.40;99.90;;;;;;4993176;28;20117;-78
2023/05/14 02:59:39;;;;;;;10.65;7.95;;;11.50;99.90;;;;;;4982866;28;20022;-77
2023/05/14 03:02:05;;;;;;;12.35;8.20;;;11.50;99.90;;;;;;4982703;28;20034;-79
2023/05/14 03:04:30;;;;;;;12.60;7.60;;;11.50;99.90;;;;;;4980962;28;20073;-78
2023/05/14 03:06:56;;;;;;;9.90;7.18;;;11.50;99.90;;;;;;4982368;28;20030;-79
2023/05/14 03:09:22;;;;;;;9.80;7.05;;;11.50;99.90;;;;;;4978263;28;20090;-78
2023/05/14 03:11:47;;;;;;;11.15;7.90;;;11.50;99.90;;;;;;4981184;28;20034;-78
2023/05/14 03:14:13;;;;;;;11.55;8.02;;;11.50;99.90;;;;;;4981065;28;20023;-79
2023/05/14 03:16:40;;;;;;;9.32;7.00;;;11.50;99.90;;;;;;4984541;28;20045;-77
2023/05/14 03:19:09;;;;;;;9.88;7.13;;;11.40;99.90;;;;;;4978505;28;20481;-78
2023/05/14 03:21:35;;;;;;;12.10;7.55;;;11.50;99.90;;;;;;4981870;28;20018;-79
2023/05/14 03:24:00;;;;;;;12.23;8.02;;;11.50;99.90;;;;;;4977755;28;20035;-78
2023/05/14 03:26:26;;;;;;;9.70;7.32;;;11.50;99.90;;;;;;4977246;28;20038;-79
2023/05/14 03:28:52;;;;;;;10.05;7.80;;;11.50;99.90;;;;;;4979608;28;20437;-79
2023/05/14 03:31:20;;;;;;;13.45;9.30;;;11.50;99.90;;;;;;4985074;28;20147;-78
2023/05/14 03:33:46;;;;;;;10.77;8.75;;;11.50;99.90;;;;;;4979006;28;20030;-77
2023/05/14 03:36:11;;;;;;;10.48;8.35;;;11.50;99.90;;;;;;4978623;28;20042;-77
2023/05/14 03:38:37;;;;;;;11.20;7.75;;;11.50;99.90;;;;;;4976516;28;20042;-77
2023/05/14 03:41:03;;;;;;;10.07;7.68;;;11.50;99.90;;;;;;4982606;28;20027;-78
2023/05/14 03:43:28;;;;;;;10.60;8.43;;;11.50;99.90;;;;;;4974599;28;20027;-77
2023/05/14 03:45:54;;;;;;;16.15;9.95;;;11.50;99.90;;;;;;4983491;28;20405;-77
2023/05/14 03:48:19;;;;;;;14.52;9.70;;;11.50;99.90;;;;;;4976333;28;20034;-78
2023/05/14 03:50:48;;;;;;;13.60;10.52;;;11.50;99.90;;;;;;4979458;28;20026;-77
2023/05/14 03:53:20;;;;;;;12.73;9.40;;;11.50;99.90;;;;;;4978319;28;20066;-78
2023/05/14 03:55:45;;;;;;;12.88;9.15;;;11.50;99.90;;;;;;4980161;28;20039;-78
2023/05/14 03:58:13;;;;;;;12.60;9.52;;;11.50;99.90;;;;;;4978234;28;20026;-78
2023/05/14 04:00:42;;;;;;;13.80;9.80;;;11.50;99.90;;;;;;4984156;28;20014;-78
2023/05/14 04:03:08;;;;;;;12.85;9.50;;;11.50;99.90;;;;;;4981645;28;20027;-79
2023/05/14 04:05:34;;;;;;;18.38;9.85;;;11.40;99.90;;;;;;4981013;28;20034;-78
2023/05/14 04:08:00;;;;;;;17.58;9.73;;;11.40;99.90;;;;;;4998803;28;20054;-78
2023/05/14 04:10:26;;;;;;;16.17;9.93;;;11.40;99.90;;;;;;4976517;28;20042;-78
2023/05/14 04:12:52;;;;;;;14.73;10.25;;;11.50;99.90;;;;;;4981722;28;20022;-78
2023/05/14 04:15:17;;;;;;;15.65;10.27;;;11.50;99.90;;;;;;4981792;28;20040;-78
2023/05/14 04:17:43;;;;;;;14.68;9.90;;;11.40;99.90;;;;;;4980285;28;20061;-78
2023/05/14 04:20:09;;;;;;;14.95;9.73;;;11.50;99.90;;;;;;4975737;28;20038;-79
2023/05/14 04:22:35;;;;;;;11.77;9.65;;;11.50;99.90;;;;;;4980333;28;20494;-78
2023/05/14 04:25:01;;;;;;;14.77;10.70;;;11.50;99.90;;;;;;4980344;28;20027;-77
2023/05/14 04:27:27;;;;;;;14.80;10.50;;;11.50;99.90;;;;;;4978880;28;20507;-77
2023/05/14 04:29:56;;;;;;;14.73;10.20;;;11.50;99.90;;;;;;4981980;28;20105;-79
2023/05/14 04:32:21;;;;;;;16.45;10.52;;;11.50;99.90;;;;;;4985621;28;20034;-78
2023/05/14 04:34:47;;;;;;;16.45;10.95;;;11.60;99.90;;;;;;4981730;28;20042;-78
2023/05/14 04:37:15;;;;;;;19.08;11.27;;;11.50;99.90;;;;;;4978641;28;20430;-78
2023/05/14 04:39:41;;;;;;;17.60;12.45;;;11.50;99.90;;;;;;4980853;28;20030;-78
2023/05/14 04:42:07;;;;;;;17.08;12.18;;;11.50;99.90;;;;;;4979426;28;20046;-78
2023/05/14 04:44:33;;;;;;;21.80;12.93;;;11.50;99.90;;;;;;4981616;28;20026;-78
2023/05/14 04:46:59;;;;;;;18.05;13.10;;;11.50;99.90;;;;;;4974124;28;20042;-79
2023/05/14 04:49:25;;;;;;;19.65;12.93;;;11.40;99.90;;;;;;4973862;28;20050;-80
2023/05/14 04:51:51;;;;;;;19.05;12.57;;;11.40;99.90;;;;;;4973461;28;20047;-80
2023/05/14 04:54:17;;;;;;;16.65;12.50;;;11.40;99.90;;;;;;4977999;28;20030;-80
2023/05/14 04:56:42;;;;;;;17.63;12.02;;;11.30;99.90;;;;;;4976970;28;20049;-80
2023/05/14 04:59:08;;;;;;;17.25;11.85;;;11.30;99.90;;;;;;4974562;28;20033;-79
2023/05/14 05:01:34;;;;;;;17.75;11.88;;;11.30;99.90;;;;;;4986291;28;20042;-80
2023/05/14 05:03:59;;;;;;;18.25;12.95;;;11.30;99.90;;;;;;4980803;28;20034;-80
2023/05/14 05:06:25;;;;;;;18.42;12.45;;;11.30;99.90;;;;;;4977147;28;20031;-81
2023/05/14 05:08:50;;;;;;;18.50;12.68;;;11.20;99.90;;;;;;4976690;28;20634;-81
2023/05/14 05:11:22;;;;;;;17.98;12.50;;;11.20;99.90;;;;;;4980106;28;20028;-81
2023/05/14 05:13:51;;;;;;;17.60;11.88;;;11.30;99.90;;;;;;4972028;28;20049;-80
2023/05/14 05:16:16;;;;;;;17.92;12.23;;;11.30;99.90;;;;;;4978633;28;20058;-79
2023/05/14 05:18:43;;;;;;;18.67;12.73;;;11.30;99.90;;;;;;4977737;28;20105;-78
2023/05/14 05:21:11;;;;;;;17.58;12.70;;;11.30;99.90;;;;;;4977019;28;20027;-79
2023/05/14 05:23:37;;;;;;;18.02;13.05;;;11.30;99.90;;;;;;4977381;28;20103;-79
2023/05/14 05:26:03;;;;;;;20.13;13.20;;;11.30;99.90;;;;;;4983701;28;20043;-79
2023/05/14 05:28:28;;;;;;;18.23;13.05;;;11.30;99.90;;;;;;4986248;28;20491;-79
2023/05/14 05:30:54;;;;;;;22.50;15.15;;;11.30;99.90;;;;;;4981778;28;20019;-78
2023/05/14 05:33:20;;;;;;;19.13;13.15;;;11.30;99.90;;;;;;4981047;28;20039;-79
2023/05/14 05:35:47;;;;;;;17.85;12.73;;;11.20;99.90;;;;;;4980774;28;20039;-79
2023/05/14 05:38:14;;;;;;;18.25;13.57;;;11.20;99.90;;;;;;4976977;28;20034;-78
2023/05/14 05:40:40;;;;;;;18.80;12.52;;;11.20;99.90;;;;;;4979517;28;20015;-78
2023/05/14 05:43:05;;;;;;;19.38;13.25;;;11.20;99.90;;;;;;4977873;28;20094;-78
2023/05/14 05:45:31;;;;;;;19.75;12.30;;;11.20;99.90;;;;;;4979287;28;20026;-79
2023/05/14 05:48:03;;;;;;;17.30;11.40;;;11.30;99.90;;;;;;4980265;28;20031;-79
2023/05/14 05:50:32;;;;;;;17.30;11.77;;;11.30;99.90;;;;;;4979681;28;20031;-80
2023/05/14 05:52:58;;;;;;;16.67;11.05;;;11.30;99.90;;;;;;4976848;28;20034;-80
2023/05/14 05:55:24;;;;;;;15.05;11.80;;;11.30;99.90;;;;;;4983439;28;20027;-80
2023/05/14 05:57:50;;;;;;;17.20;11.75;;;11.20;99.90;;;;;;4995408;28;20493;-79
2023/05/14 06:00:16;;;;;;;16.73;11.57;;;11.30;99.90;;;;;;4971973;28;20038;-72
2023/05/14 06:02:47;;;;;;;16.20;11.90;;;11.30;99.90;;;;;;4972056;28;20046;-72
2023/05/14 06:05:13;;;;;;;16.02;11.82;;;11.30;99.90;;;;;;4977399;28;20023;-72
2023/05/14 06:07:39;;;;;;;19.23;11.73;;;11.30;99.90;;;;;;4977802;28;20569;-71
2023/05/14 06:10:05;;;;;;;15.50;11.05;;;11.30;99.90;;;;;;4982362;28;20023;-71
2023/05/14 06:12:31;;;;;;;15.63;11.48;;;11.20;99.90;;;;;;4975819;28;20118;-71
2023/05/14 06:14:56;;;;;;;17.65;12.73;;;11.20;99.90;;;;;;4973814;28;20492;-72
2023/05/14 06:17:25;;;;;;;20.80;12.50;;;11.20;99.90;;;;;;4976494;28;20102;-72
2023/05/14 06:19:52;;;;;;;17.95;12.38;;;11.10;99.90;;;;;;4977143;28;20394;-72
2023/05/14 06:22:18;;;;;;;17.27;12.90;;;11.20;99.90;;;;;;4972249;28;20034;-72
2023/05/14 06:24:43;;;;;;;18.75;11.32;;;11.10;99.90;;;;;;4973536;28;20106;-72
2023/05/14 06:27:10;;;;;;;15.48;10.55;;;11.10;99.90;;;;;;4969979;28;20451;-72
2023/05/14 06:29:36;;;;;;;15.85;11.75;;;11.10;99.90;;;;;;4976775;28;20054;-79
2023/05/14 06:32:03;;;;;;;18.77;11.88;;;11.10;99.90;;;;;;4981473;28;21647;-78
2023/05/14 06:34:29;;;;;;;17.38;11.07;;;11.10;99.90;;;;;;4980731;28;20042;-80
2023/05/14 06:36:56;;;;;;;18.95;11.88;;;11.10;99.90;;;;;;4984523;28;20080;-78
2023/05/14 06:39:22;;;;;;;16.48;12.13;;;11.10;99.90;;;;;;4984622;28;20019;-79
2023/05/14 06:41:47;;;;;;;17.85;12.40;;;11.10;99.90;;;;;;4984022;28;20371;-79
2023/05/14 06:44:18;;;;;;;16.10;11.70;;;11.10;99.90;;;;;;4979906;28;20019;-79
2023/05/14 06:46:43;;;;;;;17.52;12.23;;;11.10;99.90;;;;;;4981724;28;20049;-79
2023/05/14 06:49:09;;;;;;;20.40;12.52;;;11.10;99.90;;;;;;4983051;28;20026;-79
2023/05/14 06:51:37;;;;;;;23.10;13.27;;;11.10;99.90;;;;;;4980884;28;20073;-79
2023/05/14 06:54:03;;;;;;;20.45;13.40;;;11.10;99.90;;;;;;4976649;28;20027;-79
2023/05/14 06:56:29;;;;;;;18.17;12.75;;;11.10;99.90;;;;;;4975494;28;20057;-81
2023/05/14 06:58:55;;;;;;;21.50;13.23;;;11.10;99.90;;;;;;4979526;28;20446;-80
2023/05/14 07:01:20;;;;;;;19.98;13.30;;;11.10;99.90;;;;;;4972021;28;20081;-79
2023/05/14 07:03:46;;;;;;;17.67;11.95;;;11.10;99.90;;;;;;4980469;28;20144;-81
2023/05/14 07:06:12;;;;;;;17.63;11.90;;;11.10;99.90;;;;;;4989839;28;20031;-82
2023/05/14 07:08:38;;;;;;;15.82;11.00;;;11.10;99.90;;;;;;4980847;28;20040;-80
2023/05/14 07:11:04;;;;;;;17.70;11.48;;;11.10;99.90;;;;;;4979471;28;20648;-79
2023/05/14 07:13:29;;;;;;;17.50;11.05;;;11.20;99.90;;;;;;4980902;28;21213;-79
2023/05/14 07:15:58;;;;;;;19.23;11.35;;;11.20;99.90;;;;;;4980584;28;20085;-79
2023/05/14 07:18:24;;;;;;;16.10;10.07;;;11.20;99.90;;;;;;4989991;28;20019;-80
2023/05/14 07:20:49;;;;;;;16.17;10.52;;;11.20;99.90;;;;;;4996929;28;20041;-80
2023/05/14 07:23:15;;;;;;;16.10;11.23;;;11.20;99.90;;;;;;4994824;28;20026;-79
2023/05/14 07:25:40;;;;;;;16.65;11.13;;;11.20;99.90;;;;;;4989339;28;20030;-80
2023/05/14 07:28:06;;;;;;;17.58;11.73;;;11.20;99.90;;;;;;4979430;28;20049;-80
2023/05/14 07:30:32;;;;;;;17.15;11.75;;;11.20;99.90;;;;;;4977925;28;20034;-80
2023/05/14 07:32:57;;;;;;;17.45;11.88;;;11.20;99.90;;;;;;4995711;28;20466;-80
2023/05/14 07:35:23;;;;;;;17.02;11.07;;;11.30;99.90;;;;;;4981224;28;20042;-81
2023/05/14 07:37:49;;;;;;;19.67;11.63;;;11.30;99.90;;;;;;4976846;28;20110;-81
2023/05/14 07:40:15;;;;;;;16.58;11.80;;;11.30;99.90;;;;;;4979540;28;20026;-79
2023/05/14 07:42:40;;;;;;;16.63;11.43;;;11.40;99.90;;;;;;4975734;28;20046;-80
2023/05/14 07:45:08;;;;;;;16.02;11.70;;;11.40;99.90;;;;;;4978698;28;20034;-80
2023/05/14 07:47:34;;;;;;;18.23;11.00;;;11.50;99.90;;;;;;4975481;28;20022;-79
2023/05/14 07:50:02;;;;;;;16.52;11.25;;;11.60;99.90;;;;;;4978997;28;20088;-80
2023/05/14 07:52:28;;;;;;;16.83;11.15;;;11.60;99.90;;;;;;4984636;28;20042;-79
2023/05/14 07:54:54;;;;;;;17.23;12.02;;;11.70;99.90;;;;;;4981635;28;20047;-80
2023/05/14 07:57:20;;;;;;;14.52;11.02;;;11.70;99.90;;;;;;4984958;28;20521;-80
2023/05/14 07:59:47;;;;;;;15.52;10.45;;;11.70;99.90;;;;;;4979236;28;20026;-78
2023/05/14 08:02:14;;;;;;;16.20;11.40;;;11.80;99.90;;;;;;4972977;28;20071;-78
2023/05/14 08:04:43;;;;;;;16.40;11.55;;;11.80;99.90;;;;;;4971741;28;20019;-77
2023/05/14 08:07:09;;;;;;;16.23;10.88;;;11.90;99.90;;;;;;4970461;28;20413;-77
2023/05/14 08:09:35;;;;;;;16.73;11.50;;;11.90;99.90;;;;;;4972811;28;20141;-78
2023/05/14 08:12:00;;;;;;;17.15;11.77;;;12.00;99.90;;;;;;4989188;28;20423;-79
2023/05/14 08:14:26;;;;;;;15.15;11.15;;;12.10;99.90;;;;;;4983992;28;20075;-79
2023/05/14 08:16:52;;;;;;;16.25;11.20;;;12.20;99.90;;;;;;4979699;28;20034;-78
2023/05/14 08:19:17;;;;;;;16.92;11.70;;;12.30;99.90;;;;;;4980638;28;20033;-79
2023/05/14 08:21:43;;;;;;;16.05;10.90;;;12.40;99.90;;;;;;4987585;28;20030;-78
2023/05/14 08:24:09;;;;;;;15.85;11.57;;;12.40;99.90;;;;;;4978190;28;20033;-78
2023/05/14 08:26:34;;;;;;;19.02;11.85;;;12.50;99.90;;;;;;4974931;28;20026;-78
2023/05/14 08:29:00;;;;;;;16.90;11.40;;;12.50;99.90;;;;;;4981276;28;20030;-79
2023/05/14 08:31:25;;;;;;;15.20;10.85;;;12.60;99.90;;;;;;4980675;28;20031;-78
2023/05/14 08:33:51;;;;;;;16.58;11.57;;;12.60;99.90;;;;;;4974518;28;20505;-79
2023/05/14 08:36:17;;;;;;;17.55;11.90;;;12.60;99.90;;;;;;4977172;28;20066;-79
2023/05/14 08:38:44;;;;;;;16.13;11.15;;;12.60;99.90;;;;;;4993342;23;20049;-85
2023/05/14 08:41:11;;;;;;;14.88;11.40;;;12.70;99.90;;;;;;4988784;28;20034;-84
2023/05/14 08:43:49;;;;;;;15.65;10.73;;;12.70;99.90;;;;;;4986368;28;20109;-84
2023/05/14 08:46:21;;;;;;;15.60;11.45;;;12.80;99.90;;;;;;4984431;28;20050;-84
2023/05/14 08:48:52;;;;;;;21.73;10.98;;;12.90;99.90;;;;;;4988093;28;20080;-83
2023/05/14 08:51:18;;;;;;;16.77;11.75;;;13.00;99.90;;;;;;4989758;28;20034;-84
2023/05/14 08:53:44;;;;;;;14.32;10.32;;;13.10;99.90;;;;;;4988747;28;20030;-82
2023/05/14 08:56:11;;;;;;;14.70;10.63;;;13.20;99.90;;;;;;4986554;28;20035;-83
2023/05/14 08:58:37;;;;;;;16.20;11.15;;;13.20;99.90;;;;;;4989673;28;20023;-82
2023/05/14 09:01:03;;;;;;;14.32;10.75;;;13.20;99.90;;;;;;4982551;28;20032;-83
2023/05/14 09:03:29;;;;;;;14.07;10.45;;;13.20;99.90;;;;;;4985097;28;20410;-84
2023/05/14 09:05:55;;;;;;;15.05;10.52;;;13.20;99.90;;;;;;4986634;28;20023;-83
2023/05/14 09:08:21;;;;;;;15.60;10.73;;;13.30;99.90;;;;;;4985991;28;20036;-83
2023/05/14 09:10:47;;;;;;;13.35;10.43;;;13.40;99.90;;;;;;4983738;28;20126;-83
2023/05/14 09:13:13;;;;;;;14.23;10.60;;;13.50;99.90;;;;;;4989853;28;20030;-83
2023/05/14 09:15:40;;;;;;;14.40;10.40;;;13.60;99.90;;;;;;4989166;28;20475;-83
2023/05/14 09:18:06;;;;;;;15.10;10.85;;;13.70;99.90;;;;;;4988656;28;20022;-82
2023/05/14 09:20:32;;;;;;;15.63;10.48;;;13.80;99.90;;;;;;4988869;28;20577;-83
2023/05/14 09:22:58;;;;;;;16.55;10.25;;;13.70;99.90;;;;;;4990881;28;20032;-83
2023/05/14 09:25:30;;;;;;;16.02;11.32;;;13.80;99.90;;;;;;4993786;28;20018;-84
2023/05/14 09:27:57;;;;;;;15.38;10.98;;;13.70;99.90;;;;;;4989878;28;20031;-84
2023/05/14 09:30:23;;;;;;;15.65;9.77;;;13.70;99.90;;;;;;4992171;28;20026;-84
2023/05/14 09:32:52;;;;;;;13.50;10.40;;;13.70;99.90;;;;;;4991761;28;20487;-84
2023/05/14 09:35:20;;;;;;;15.45;10.13;;;13.70;99.90;;;;;;4987607;28;20031;-84
2023/05/14 09:37:51;;;;;;;15.25;11.07;;;13.60;99.90;;;;;;4992351;28;20090;-85
2023/05/14 09:40:18;;;;;;;17.35;11.77;;;13.70;99.90;;;;;;4987876;28;20371;-85
2023/05/14 09:42:44;;;;;;;17.15;10.77;;;13.70;99.90;;;;;;4992631;28;20030;-84
2023/05/14 09:45:11;;;;;;;14.55;10.30;;;13.70;99.90;;;;;;4990667;28;20038;-84
2023/05/14 09:47:38;;;;;;;16.70;10.65;;;13.80;99.90;;;;;;4992493;28;20027;-84
2023/05/14 09:50:05;;;;;;;14.10;10.57;;;13.80;99.90;;;;;;4991002;28;20030;-85
2023/05/14 09:52:30;;;;;;;14.35;10.75;;;13.90;99.90;;;;;;4995001;28;20027;-85
2023/05/14 09:54:56;;;;;;;18.40;12.52;;;14.00;99.90;;;;;;5010581;28;20031;-84
2023/05/14 09:57:22;;;;;;;18.25;12.23;;;14.00;99.90;;;;;;5005098;28;20023;-84
2023/05/14 09:59:48;;;;;;;15.05;11.45;;;14.10;99.90;;;;;;5000831;28;20057;-83
2023/05/14 10:02:36;;;;;;;12.60;9.90;;;14.10;99.90;;;;;;5001695;28;20035;-83
2023/05/14 10:05:04;;;;;;;14.75;10.85;;;14.10;99.90;;;;;;4999354;28;20057;-84
2023/05/14 10:07:37;;;;;;;15.57;10.38;;;14.10;99.90;;;;;;4981145;28;20843;-82
2023/05/14 10:10:06;;;;;;;20.38;13.18;;;14.10;99.90;;;;;;4984223;28;20121;-84
2023/05/14 10:12:34;;;;;;;17.02;11.25;;;14.20;99.90;;;;;;4991176;28;20038;-84
2023/05/14 10:15:11;;;;;;;15.02;9.50;;;14.20;99.90;;;;;;4991285;28;20579;-86
2023/05/14 10:17:39;;;;;;;20.95;10.93;;;14.20;99.90;;;;;;4991514;28;20032;-86
2023/05/14 10:20:08;;;;;;;17.27;11.07;;;14.30;99.90;;;;;;4988297;28;20022;-85
2023/05/14 10:22:34;;;;;;;17.58;11.10;;;14.30;99.90;;;;;;4983939;28;20034;-84
2023/05/14 10:25:01;;;;;;;13.82;9.60;;;14.30;99.90;;;;;;4991872;28;20031;-83
2023/05/14 10:27:30;;;;;;;12.65;8.93;;;14.40;99.90;;;;;;4986159;28;20026;-84
2023/05/14 10:29:56;;;;;;;16.40;10.00;;;14.50;99.90;;;;;;4988892;28;20034;-84
2023/05/14 10:32:24;;;;;;;17.30;10.32;;;14.60;99.90;;;;;;4992864;28;20027;-84
2023/05/14 10:34:51;;;;;;;13.48;8.68;;;14.70;99.90;;;;;;4991563;28;20066;-84
2023/05/14 10:37:21;;;;;;;16.80;10.48;;;14.70;99.90;;;;;;4989211;28;20045;-84
2023/05/14 10:39:52;;;;;;;14.70;9.25;;;14.80;99.90;;;;;;4991553;28;20505;-84
2023/05/14 10:42:23;;;;;;;19.05;11.20;;;14.90;99.90;;;;;;5000247;23;20026;-77
2023/05/14 10:44:50;;;;;;;12.63;8.57;;;15.00;99.90;;;;;;4992420;28;20022;-80
2023/05/14 10:47:20;;;;;;;13.13;8.13;;;15.10;99.90;;;;;;4994490;28;20035;-78
2023/05/14 10:49:49;;;;;;;12.18;8.23;;;15.10;99.90;;;;;;4990652;28;20034;-80
2023/05/14 10:52:19;;;;;;;12.55;8.02;;;15.10;99.90;;;;;;4997314;28;20037;-78
2023/05/14 10:54:59;;;;;;;12.18;8.20;;;15.20;99.90;;;;;;4994846;28;20056;-79
2023/05/14 10:57:27;;;;;;;9.98;7.90;;;15.30;99.90;;;;;;4996300;28;20034;-78
2023/05/14 10:59:55;;;;;;;9.30;7.22;;;15.30;99.90;;;;;;5009583;23;20046;-75
2023/05/14 11:02:26;;;;;;;13.35;7.90;;;15.30;99.90;;;;;;4992370;28;20037;-76
2023/05/14 11:04:58;;;;;;;9.13;6.20;;;15.40;99.90;;;;;;4990151;28;20030;-76
2023/05/14 11:07:30;;;;;;;16.60;9.15;;;15.40;99.90;;;;;;4993017;28;20026;-75
2023/05/14 11:10:01;;;;;;;8.48;6.35;;;15.40;99.90;;;;;;4997137;28;20080;-77
2023/05/14 11:12:28;;;;;;;10.30;6.07;;;15.50;99.90;;;;;;4996750;28;20035;-73
2023/05/14 11:14:57;;;;;;;12.77;6.55;;;15.60;99.90;;;;;;4998567;28;20561;-75
2023/05/14 11:17:27;;;;;;;11.77;6.22;;;15.60;99.90;;;;;;4995432;28;20026;-75
2023/05/14 11:19:58;;;;;;;9.40;6.10;;;15.60;99.90;;;;;;5006589;28;20022;-73
2023/05/14 11:22:24;;;;;;;14.55;8.50;;;15.70;99.90;;;;;;4998279;28;20030;-73
2023/05/14 11:24:50;;;;;;;11.25;7.32;;;15.70;99.90;;;;;;4996286;28;20030;-75
2023/05/14 11:27:17;;;;;;;8.63;5.80;;;15.70;99.90;;;;;;4990498;28;20026;-70
2023/05/14 11:29:47;;;;;;;14.25;9.10;;;15.70;99.90;;;;;;4987869;28;20401;-76
2023/05/14 11:32:14;;;;;;;10.60;6.53;;;15.70;99.90;;;;;;4989007;28;20137;-74
2023/05/14 11:34:41;;;;;;;11.90;6.10;;;15.70;99.90;;;;;;4992314;28;20057;-74
2023/05/14 11:37:08;;;;;;;9.00;5.95;;;15.70;99.90;;;;;;4992718;28;20041;-74
2023/05/14 11:39:53;;;;;;;8.05;5.55;;;15.60;99.90;;;;;;4997388;28;20528;-74
2023/05/14 11:42:24;;;;;;;8.27;5.78;;;15.60;99.90;;;;;;5005412;28;20430;-74
2023/05/14 11:44:53;;;;;;;8.93;5.85;;;15.60;99.90;;;;;;4994046;28;20053;-74
2023/05/14 11:47:21;;;;;;;8.48;6.18;;;15.70;99.90;;;;;;4995940;28;20030;-74
2023/05/14 11:49:47;;;;;;;11.25;6.22;;;15.80;99.90;;;;;;4998074;28;20049;-74
2023/05/14 11:52:18;;;;;;;10.98;7.15;;;15.80;99.90;;;;;;4999016;28;20122;-74
2023/05/14 11:54:44;;;;;;;14.90;7.85;;;15.90;99.90;;;;;;4996266;28;20066;-74
2023/05/14 11:57:18;;;;;;;9.27;6.95;;;15.90;99.90;;;;;;4995255;28;20033;-75
2023/05/14 11:59:44;;;;;;;19.30;9.63;;;15.90;99.90;;;;;;4995688;28;20033;-73
2023/05/14 12:02:12;;;;;;;13.95;8.18;;;15.90;99.90;;;;;;4992031;28;20026;-75
2023/05/14 12:04:43;;;;;;;25.67;10.55;;;15.80;99.90;;;;;;4998288;28;20018;-74
2023/05/14 12:07:11;;;;;;;15.57;8.48;;;15.80;99.90;;;;;;5004528;28;20488;-76
2023/05/14 12:09:48;;;;;;;8.50;5.90;;;15.80;99.90;;;;;;4992882;28;20507;-74
2023/05/14 12:12:17;;;;;;;8.50;5.95;;;15.70;99.90;;;;;;4991279;28;20061;-74
2023/05/14 12:14:44;;;;;;;8.82;6.38;;;15.80;99.90;;;;;;4993998;28;20033;-75
2023/05/14 12:17:20;;;;;;;8.30;6.00;;;15.80;99.90;;;;;;4991166;28;20042;-75
2023/05/14 12:19:48;;;;;;;13.30;6.03;;;15.80;99.90;;;;;;5007318;28;20146;-75
2023/05/14 12:22:20;;;;;;;14.18;7.10;;;15.90;99.90;;;;;;4995686;28;20022;-74
2023/05/14 12:24:57;;;;;;;13.43;6.78;;;15.90;99.90;;;;;;4998012;28;20493;-74
2023/05/14 12:27:28;;;;;;;15.93;7.95;;;16.00;99.90;;;;;;5002337;28;20096;-74
2023/05/14 12:30:05;;;;;;;10.93;6.35;;;16.10;99.90;;;;;;4994922;28;20038;-75
2023/05/14 12:32:31;;;;;;;7.32;5.15;;;16.10;99.90;;;;;;4994381;28;20022;-74
2023/05/14 12:34:58;;;;;;;7.32;5.15;;;16.20;99.90;;;;;;4995304;28;20117;-74